Ireland, Indiana
Current Conditions -  °F | °C
As of 12:35 PM on Monday 26 Jan 2015 (Local Time) from KHNB Reporting Station
Overcast Overcast  
Wind Chill: -6°   Ceiling: 1800
Heat Index: -1°   Visibility: 10mi
Dew Point: -5°   Wind: 9mph
Humidity: 75%   Direction: 280°W
Pressure: 29.97"   Gusts: NA
Location:  38.41°N, 87°W
Report Text: KHNB 261835Z AUTO 28008KT 10SM OVC018 M01/M05 A2997 RMK AO1
Loading
Personal Weather Stations






























Interactive Weather Map New forecast layout! Learn more

10-Day Weather Forecast

Advertisements
Track Severe Weather on mobile